Time;durP1;ratioP1;P1;durP2;ratioP2;P2;SDS_P1;SDS_P2;PMS_P1;PMS_P2;Temp;Humidity;BMP_temperature;BMP_pressure;BME280_temperature;BME280_humidity;BME280_pressure;Samples;Min_cycle;Max_cycle;Signal;HPM_P1;HPM_P2
2021/01/29 00:00:07;;;;;;;33.40;23.27;;;;;;;;;;2096671;28;20167;-55
2021/01/29 00:01:11;;;;;;;32.40;21.63;;;;;;;;;;2084428;28;20184;-59
2021/01/29 00:02:12;;;;;;;35.83;22.03;;;;;;;;;;2073914;28;20203;-58
2021/01/29 00:03:14;;;;;;;34.93;24.47;;;;;;;;;;2068130;28;20227;-60
2021/01/29 00:04:14;;;;;;;33.00;21.40;;;;;;;;;;2077429;28;20184;-58
2021/01/29 00:05:15;;;;;;;35.03;23.00;;;;;;;;;;2090612;28;20656;-59
2021/01/29 00:06:15;;;;;;;35.37;21.83;;;;;;;;;;2092559;28;20185;-54
2021/01/29 00:07:15;;;;;;;29.70;21.00;;;;;;;;;;2092376;28;20178;-61
2021/01/29 00:08:16;;;;;;;31.27;20.53;;;;;;;;;;2094280;28;20171;-56
2021/01/29 00:09:16;;;;;;;31.80;20.90;;;;;;;;;;2094040;28;20267;-56
2021/01/29 00:10:17;;;;;;;32.33;22.57;;;;;;;;;;2094589;28;20194;-57
2021/01/29 00:11:17;;;;;;;31.50;21.03;;;;;;;;;;2094729;28;20198;-59
2021/01/29 00:12:17;;;;;;;29.40;21.17;;;;;;;;;;2094878;28;20230;-58
2021/01/29 00:13:17;;;;;;;32.30;20.57;;;;;;;;;;2095671;28;20254;-60
2021/01/29 00:14:18;;;;;;;33.87;20.90;;;;;;;;;;2095331;28;20180;-59
2021/01/29 00:15:20;;;;;;;30.33;21.70;;;;;;;;;;2083586;28;20204;-59
2021/01/29 00:16:20;;;;;;;30.00;20.10;;;;;;;;;;2086141;28;20207;-58
2021/01/29 00:17:20;;;;;;;31.03;20.60;;;;;;;;;;2095629;28;20168;-56
2021/01/29 00:18:21;;;;;;;29.10;20.30;;;;;;;;;;2086967;28;20208;-55
2021/01/29 00:19:21;;;;;;;32.57;21.87;;;;;;;;;;2086457;28;20169;-58
2021/01/29 00:20:23;;;;;;;31.40;21.93;;;;;;;;;;2086149;28;20643;-57
2021/01/29 00:21:23;;;;;;;29.00;20.40;;;;;;;;;;2095009;28;20475;-60
2021/01/29 00:22:24;;;;;;;27.97;19.57;;;;;;;;;;2095945;28;20257;-58
2021/01/29 00:23:24;;;;;;;29.77;20.23;;;;;;;;;;2085505;28;20720;-58
2021/01/29 00:24:24;;;;;;;31.37;21.57;;;;;;;;;;2080729;28;20240;-55
2021/01/29 00:25:28;;;;;;;29.47;20.17;;;;;;;;;;2089971;28;20310;-58
2021/01/29 00:26:28;;;;;;;27.23;19.37;;;;;;;;;;2090810;28;20186;-60
2021/01/29 00:27:29;;;;;;;28.60;20.00;;;;;;;;;;2092763;28;20168;-59
2021/01/29 00:28:30;;;;;;;33.73;21.30;;;;;;;;;;2095065;28;20908;-58
2021/01/29 00:29:30;;;;;;;26.83;20.00;;;;;;;;;;2096294;28;20172;-57
2021/01/29 00:30:31;;;;;;;27.53;19.27;;;;;;;;;;2091878;28;20238;-56
2021/01/29 00:31:31;;;;;;;28.67;19.93;;;;;;;;;;2096480;28;20175;-56
2021/01/29 00:32:31;;;;;;;30.17;20.00;;;;;;;;;;2096922;28;20171;-55
2021/01/29 00:33:32;;;;;;;30.67;20.47;;;;;;;;;;2096179;28;20247;-57
2021/01/29 00:34:32;;;;;;;27.03;19.67;;;;;;;;;;2096060;28;20175;-56
2021/01/29 00:35:33;;;;;;;30.27;21.13;;;;;;;;;;2096376;28;20245;-58
2021/01/29 00:36:33;;;;;;;27.37;20.17;;;;;;;;;;2096075;28;20242;-56
2021/01/29 00:37:34;;;;;;;27.33;19.27;;;;;;;;;;2096339;28;20254;-58
2021/01/29 00:38:34;;;;;;;31.03;20.87;;;;;;;;;;2087501;28;20176;-56
2021/01/29 00:39:34;;;;;;;31.90;21.43;;;;;;;;;;2087129;28;20168;-57
2021/01/29 00:40:35;;;;;;;28.93;20.20;;;;;;;;;;2091582;28;20191;-58
2021/01/29 00:41:35;;;;;;;30.03;20.73;;;;;;;;;;2094378;28;20191;-55
2021/01/29 00:42:36;;;;;;;29.07;20.60;;;;;;;;;;2094380;28;20208;-57
2021/01/29 00:43:37;;;;;;;30.50;22.77;;;;;;;;;;2093890;28;20190;-58
2021/01/29 00:44:37;;;;;;;34.23;24.23;;;;;;;;;;2080605;28;20161;-58
2021/01/29 00:45:39;;;;;;;33.87;23.87;;;;;;;;;;2083363;28;20188;-57
2021/01/29 00:46:39;;;;;;;33.53;23.27;;;;;;;;;;2085668;28;20184;-57
2021/01/29 00:47:39;;;;;;;33.40;24.63;;;;;;;;;;2085256;28;20180;-57
2021/01/29 00:48:40;;;;;;;41.30;27.33;;;;;;;;;;2077003;28;20172;-61
2021/01/29 00:49:40;;;;;;;34.83;24.00;;;;;;;;;;2069602;28;20193;-56
2021/01/29 00:50:42;;;;;;;30.67;22.90;;;;;;;;;;2077597;28;20247;-58
2021/01/29 00:51:42;;;;;;;35.80;24.73;;;;;;;;;;2077372;28;20558;-54
2021/01/29 00:52:43;;;;;;;34.63;22.93;;;;;;;;;;2086042;28;20315;-57
2021/01/29 00:53:43;;;;;;;35.03;22.43;;;;;;;;;;2085417;28;20207;-57
2021/01/29 00:54:52;;;;;;;36.67;24.97;;;;;;;;;;2073135;28;20764;-57
2021/01/29 00:55:52;;;;;;;29.97;21.00;;;;;;;;;;2071775;28;20232;-56
2021/01/29 00:57:01;;;;;;;30.53;20.70;;;;;;;;;;2078071;28;20176;-57
2021/01/29 00:58:02;;;;;;;34.80;24.63;;;;;;;;;;2077218;28;20191;-58
2021/01/29 00:59:22;;;;;;;35.47;24.33;;;;;;;;;;2087688;28;20235;-56
2021/01/29 01:00:40;;;;;;;32.90;22.47;;;;;;;;;;2078440;28;20169;-58
2021/01/29 01:01:47;;;;;;;31.00;21.83;;;;;;;;;;2069820;28;20212;-55
2021/01/29 01:02:49;;;;;;;32.33;22.83;;;;;;;;;;2077373;28;20185;-54
2021/01/29 01:03:49;;;;;;;34.87;22.33;;;;;;;;;;2084551;28;20223;-55
2021/01/29 01:04:49;;;;;;;30.03;21.00;;;;;;;;;;2088154;28;20180;-54
2021/01/29 01:05:50;;;;;;;33.20;23.47;;;;;;;;;;2085361;28;20683;-57
2021/01/29 01:07:12;;;;;;;27.80;20.47;;;;;;;;;;2088645;28;20208;-63
2021/01/29 01:08:18;;;;;;;35.20;23.00;;;;;;;;;;2094840;28;20187;-56
2021/01/29 01:09:41;;;;;;;33.13;22.50;;;;;;;;;;2094691;28;20259;-56
2021/01/29 01:10:44;;;;;;;33.73;22.47;;;;;;;;;;2087051;28;20255;-57
2021/01/29 01:12:03;;;;;;;32.33;21.23;;;;;;;;;;2090301;28;20169;-58
2021/01/29 01:13:34;;;;;;;30.53;19.87;;;;;;;;;;2078229;28;20195;-59
2021/01/29 01:14:52;;;;;;;32.07;21.37;;;;;;;;;;2086166;28;20203;-59
2021/01/29 01:16:14;;;;;;;31.17;21.13;;;;;;;;;;2083841;28;20223;-58
2021/01/29 01:17:14;;;;;;;34.17;22.03;;;;;;;;;;2078141;28;20231;-58
2021/01/29 01:18:30;;;;;;;30.07;20.07;;;;;;;;;;2086198;28;20636;-58
2021/01/29 01:19:46;;;;;;;33.00;21.00;;;;;;;;;;2078193;28;20176;-58
2021/01/29 01:20:46;;;;;;;31.00;22.30;;;;;;;;;;2077615;28;20180;-57
2021/01/29 01:21:46;;;;;;;31.30;20.60;;;;;;;;;;2088115;28;20261;-58
2021/01/29 01:23:05;;;;;;;30.20;21.37;;;;;;;;;;2086229;28;20188;-58
2021/01/29 01:24:15;;;;;;;32.90;21.50;;;;;;;;;;2085584;28;20239;-58
2021/01/29 01:25:16;;;;;;;30.20;21.67;;;;;;;;;;2085343;28;20167;-58
2021/01/29 01:26:16;;;;;;;32.27;20.90;;;;;;;;;;2086797;28;20200;-56
2021/01/29 01:27:37;;;;;;;31.30;21.83;;;;;;;;;;2082395;28;20176;-56
2021/01/29 01:29:00;;;;;;;30.87;20.20;;;;;;;;;;2059698;28;20186;-55
2021/01/29 01:30:01;;;;;;;31.17;20.63;;;;;;;;;;2079223;28;20429;-55
2021/01/29 01:31:01;;;;;;;30.70;22.27;;;;;;;;;;2076829;28;20240;-55
2021/01/29 01:32:03;;;;;;;33.37;23.23;;;;;;;;;;2073170;28;20173;-55
2021/01/29 01:33:32;;;;;;;32.90;21.37;;;;;;;;;;2090039;28;20176;-55
2021/01/29 01:34:44;;;;;;;32.40;21.87;;;;;;;;;;2081556;28;20177;-57
2021/01/29 01:35:51;;;;;;;32.50;21.63;;;;;;;;;;2090054;28;20200;-57
2021/01/29 01:36:56;;;;;;;32.87;22.47;;;;;;;;;;2082228;28;20173;-57
2021/01/29 01:38:17;;;;;;;28.00;20.20;;;;;;;;;;2078572;28;20191;-56
2021/01/29 01:39:20;;;;;;;28.90;20.50;;;;;;;;;;2088595;28;20196;-58
2021/01/29 01:40:23;;;;;;;28.93;20.40;;;;;;;;;;2080155;28;20173;-59
2021/01/29 01:41:23;;;;;;;28.53;19.83;;;;;;;;;;2087624;28;20563;-57
2021/01/29 01:42:29;;;;;;;33.67;22.70;;;;;;;;;;2087703;28;20187;-56
2021/01/29 01:43:29;;;;;;;34.37;23.20;;;;;;;;;;2079346;28;20176;-59
2021/01/29 01:44:56;;;;;;;35.23;21.77;;;;;;;;;;2084494;28;20196;-58
2021/01/29 01:46:13;;;;;;;35.07;22.57;;;;;;;;;;2086720;28;20178;-58
2021/01/29 01:47:24;;;;;;;33.73;21.07;;;;;;;;;;2088646;28;20179;-57
2021/01/29 01:48:47;;;;;;;33.40;21.73;;;;;;;;;;2083019;28;20184;-57
2021/01/29 01:50:36;;;;;;;31.67;22.37;;;;;;;;;;2093566;28;20551;-54
2021/01/29 01:51:41;;;;;;;32.20;21.30;;;;;;;;;;2075005;28;20189;-56
2021/01/29 01:54:07;;;;;;;32.77;21.00;;;;;;;;;;2094665;28;20213;-61
2021/01/29 01:55:09;;;;;;;34.70;21.67;;;;;;;;;;2096801;28;20851;-58
2021/01/29 01:56:19;;;;;;;32.17;22.17;;;;;;;;;;2099347;28;20270;-61
2021/01/29 01:57:55;;;;;;;33.60;20.87;;;;;;;;;;2097712;28;20217;-58
2021/01/29 01:59:09;;;;;;;33.53;21.07;;;;;;;;;;2097774;28;20217;-56
2021/01/29 02:00:30;;;;;;;30.43;20.67;;;;;;;;;;2097604;28;20171;-57
2021/01/29 02:01:48;;;;;;;32.50;20.80;;;;;;;;;;2092458;28;20179;-59
2021/01/29 02:03:29;;;;;;;31.63;20.63;;;;;;;;;;2095963;28;20187;-54
2021/01/29 02:04:43;;;;;;;36.70;20.70;;;;;;;;;;2081352;28;20195;-57
2021/01/29 02:06:17;;;;;;;33.83;21.37;;;;;;;;;;2080004;28;20171;-53
2021/01/29 02:07:41;;;;;;;29.60;20.67;;;;;;;;;;2091703;28;20600;-55
2021/01/29 02:09:11;;;;;;;33.67;21.23;;;;;;;;;;2080847;28;20167;-58
2021/01/29 02:10:27;;;;;;;34.17;21.97;;;;;;;;;;2092666;28;20236;-53
2021/01/29 02:11:28;;;;;;;34.33;21.50;;;;;;;;;;2087170;28;20261;-53
2021/01/29 02:12:50;;;;;;;32.10;21.17;;;;;;;;;;2075790;28;20203;-56
2021/01/29 02:13:56;;;;;;;33.67;22.10;;;;;;;;;;2074284;28;20678;-51
2021/01/29 02:15:19;;;;;;;34.77;21.43;;;;;;;;;;2090999;28;20171;-53
2021/01/29 02:16:32;;;;;;;34.33;22.43;;;;;;;;;;2092584;28;20181;-57
2021/01/29 02:17:41;;;;;;;33.30;22.43;;;;;;;;;;2080219;28;20535;-52
2021/01/29 02:19:16;;;;;;;32.77;22.27;;;;;;;;;;2084679;28;20297;-54
2021/01/29 02:20:19;;;;;;;32.97;21.80;;;;;;;;;;2089558;28;20255;-56
2021/01/29 02:21:22;;;;;;;32.97;21.90;;;;;;;;;;2080305;28;20405;-51
2021/01/29 02:22:50;;;;;;;34.90;21.10;;;;;;;;;;2080868;28;20554;-53
2021/01/29 02:24:28;;;;;;;37.20;22.60;;;;;;;;;;2088636;28;20192;-54
2021/01/29 02:26:10;;;;;;;32.97;21.63;;;;;;;;;;2071423;28;20652;-58
2021/01/29 02:27:24;;;;;;;34.33;21.90;;;;;;;;;;2085637;28;20183;-57
2021/01/29 02:28:53;;;;;;;38.47;24.23;;;;;;;;;;2077728;28;20541;-57
2021/01/29 02:30:13;;;;;;;32.83;22.50;;;;;;;;;;2072725;28;20177;-55
2021/01/29 02:31:32;;;;;;;36.93;23.63;;;;;;;;;;2076619;28;20661;-53
2021/01/29 02:32:47;;;;;;;35.43;22.53;;;;;;;;;;2072923;28;20198;-56
2021/01/29 02:34:07;;;;;;;35.27;22.90;;;;;;;;;;2076072;28;20228;-54
2021/01/29 02:35:23;;;;;;;36.73;22.63;;;;;;;;;;2082920;28;20401;-52
2021/01/29 02:36:32;;;;;;;35.97;21.67;;;;;;;;;;2088491;28;20176;-58
2021/01/29 02:38:02;;;;;;;40.03;24.00;;;;;;;;;;2088312;28;20755;-60
2021/01/29 02:39:19;;;;;;;32.67;22.33;;;;;;;;;;2052504;28;20899;-59
2021/01/29 02:40:28;;;;;;;35.53;22.00;;;;;;;;;;2061281;28;20431;-61
2021/01/29 02:41:46;;;;;;;40.43;25.30;;;;;;;;;;2078741;28;20460;-61
2021/01/29 02:43:10;;;;;;;31.77;20.70;;;;;;;;;;2080710;28;20176;-55
2021/01/29 02:44:36;;;;;;;32.97;21.77;;;;;;;;;;2085612;28;20181;-59
2021/01/29 02:46:14;;;;;;;34.97;21.27;;;;;;;;;;2091863;28;20179;-59
2021/01/29 02:47:27;;;;;;;35.30;21.93;;;;;;;;;;2093319;28;20674;-56
2021/01/29 02:48:51;;;;;;;37.73;23.20;;;;;;;;;;2085618;28;20436;-59
2021/01/29 02:50:19;;;;;;;42.10;23.17;;;;;;;;;;2095898;28;20396;-61
2021/01/29 02:51:54;;;;;;;38.27;23.37;;;;;;;;;;2097816;28;20527;-61
2021/01/29 02:53:13;;;;;;;40.43;23.73;;;;;;;;;;2087748;28;20467;-58
2021/01/29 02:54:44;;;;;;;36.27;21.93;;;;;;;;;;2087528;28;20420;-58
2021/01/29 02:56:16;;;;;;;37.47;23.60;;;;;;;;;;2087903;28;21041;-57
2021/01/29 02:57:43;;;;;;;37.57;23.27;;;;;;;;;;2096475;28;20547;-59
2021/01/29 02:58:58;;;;;;;35.60;22.97;;;;;;;;;;2090322;28;20203;-60
2021/01/29 03:00:43;;;;;;;39.33;24.37;;;;;;;;;;2096198;28;20174;-56
2021/01/29 03:01:53;;;;;;;34.83;22.57;;;;;;;;;;2095213;28;20441;-59
2021/01/29 03:03:13;;;;;;;34.10;22.27;;;;;;;;;;2093921;28;20405;-56
2021/01/29 03:04:22;;;;;;;39.50;23.97;;;;;;;;;;2092075;28;20407;-58
2021/01/29 03:05:31;;;;;;;39.93;24.43;;;;;;;;;;2089731;28;20401;-61
2021/01/29 03:06:38;;;;;;;41.10;24.10;;;;;;;;;;2093894;28;20974;-56
2021/01/29 03:07:49;;;;;;;38.37;23.97;;;;;;;;;;2097013;28;20436;-58
2021/01/29 03:09:28;;;;;;;38.07;22.17;;;;;;;;;;2081538;28;20267;-60
2021/01/29 03:10:56;;;;;;;36.20;22.73;;;;;;;;;;2083326;28;20397;-58
2021/01/29 03:12:23;;;;;;;38.10;24.27;;;;;;;;;;2091323;28;20381;-57
2021/01/29 03:13:53;;;;;;;34.90;22.83;;;;;;;;;;2087202;28;20972;-55
2021/01/29 03:15:30;;;;;;;35.20;23.33;;;;;;;;;;2096014;28;20396;-61
2021/01/29 03:16:54;;;;;;;37.77;23.93;;;;;;;;;;2091055;28;20176;-60
2021/01/29 03:18:21;;;;;;;37.03;22.80;;;;;;;;;;2096129;28;20155;-57
2021/01/29 03:19:43;;;;;;;35.70;23.23;;;;;;;;;;2089312;28;20168;-62
2021/01/29 03:21:06;;;;;;;35.27;22.80;;;;;;;;;;2087919;28;20392;-58
2021/01/29 03:22:28;;;;;;;40.00;24.20;;;;;;;;;;2097267;28;20170;-56
2021/01/29 03:23:56;;;;;;;33.93;22.50;;;;;;;;;;2087844;28;20203;-58
2021/01/29 03:25:30;;;;;;;39.03;22.60;;;;;;;;;;2088716;28;20471;-59
2021/01/29 03:27:09;;;;;;;36.17;20.73;;;;;;;;;;2072028;28;20189;-58
2021/01/29 03:28:39;;;;;;;32.50;21.27;;;;;;;;;;2072293;28;20693;-56
2021/01/29 03:30:00;;;;;;;33.07;21.00;;;;;;;;;;2081046;28;20606;-58
2021/01/29 03:31:20;;;;;;;35.20;23.00;;;;;;;;;;2081883;28;20168;-57
2021/01/29 03:32:41;;;;;;;34.40;22.27;;;;;;;;;;2081748;28;20465;-59
2021/01/29 03:34:03;;;;;;;34.27;21.40;;;;;;;;;;2089042;28;20187;-60
2021/01/29 03:35:31;;;;;;;32.53;22.13;;;;;;;;;;2089972;28;20165;-57
2021/01/29 03:36:55;;;;;;;37.70;21.50;;;;;;;;;;2089745;28;20652;-59
2021/01/29 03:38:24;;;;;;;33.30;20.90;;;;;;;;;;2090159;28;20596;-56
2021/01/29 03:39:43;;;;;;;34.13;22.60;;;;;;;;;;2089915;28;20239;-58
2021/01/29 03:41:09;;;;;;;29.07;20.27;;;;;;;;;;2089653;28;20183;-57
2021/01/29 03:42:32;;;;;;;33.30;21.27;;;;;;;;;;2089913;28;20160;-58
2021/01/29 03:44:04;;;;;;;33.40;20.90;;;;;;;;;;2089577;28;20412;-58
2021/01/29 03:45:46;;;;;;;32.17;19.90;;;;;;;;;;2091268;28;20823;-61
2021/01/29 03:47:11;;;;;;;33.33;19.70;;;;;;;;;;2092492;28;20373;-59
2021/01/29 03:48:38;;;;;;;29.57;20.53;;;;;;;;;;2092754;28;20417;-61
2021/01/29 03:50:09;;;;;;;31.50;20.60;;;;;;;;;;2092683;28;20537;-60
2021/01/29 03:51:47;;;;;;;32.77;20.73;;;;;;;;;;2088189;28;20409;-56
2021/01/29 03:53:11;;;;;;;32.53;21.20;;;;;;;;;;2089142;28;20171;-58
2021/01/29 03:54:48;;;;;;;31.20;19.33;;;;;;;;;;2088602;28;20179;-53
2021/01/29 03:56:07;;;;;;;29.63;18.60;;;;;;;;;;2086583;28;20199;-58
2021/01/29 03:57:25;;;;;;;32.17;19.30;;;;;;;;;;2092849;28;20399;-55
2021/01/29 03:59:07;;;;;;;31.17;19.87;;;;;;;;;;2083028;28;20251;-56
2021/01/29 04:00:35;;;;;;;28.57;19.17;;;;;;;;;;2084801;28;20649;-59
2021/01/29 04:02:13;;;;;;;30.90;19.00;;;;;;;;;;2085334;28;20188;-59
2021/01/29 04:03:39;;;;;;;26.87;18.20;;;;;;;;;;2090749;28;20433;-59
2021/01/29 04:05:05;;;;;;;29.67;18.27;;;;;;;;;;2086050;28;20430;-58
2021/01/29 04:06:31;;;;;;;28.83;19.10;;;;;;;;;;2092270;28;20432;-61
2021/01/29 04:08:06;;;;;;;30.33;18.70;;;;;;;;;;2080042;28;20211;-59
2021/01/29 04:09:31;;;;;;;27.27;18.07;;;;;;;;;;2094438;28;20175;-60
2021/01/29 04:10:59;;;;;;;23.23;16.40;;;;;;;;;;2085376;28;20434;-58
2021/01/29 04:12:23;;;;;;;28.70;18.20;;;;;;;;;;2096876;28;20216;-59
2021/01/29 04:13:56;;;;;;;26.20;17.30;;;;;;;;;;2086476;28;20416;-56
2021/01/29 04:15:03;;;;;;;25.67;18.77;;;;;;;;;;2091654;28;20179;-60
2021/01/29 04:16:07;;;;;;;28.13;18.33;;;;;;;;;;2095798;28;20679;-61
2021/01/29 04:17:13;;;;;;;29.17;19.30;;;;;;;;;;2097470;28;20258;-57
2021/01/29 04:18:28;;;;;;;28.30;18.37;;;;;;;;;;2091059;28;20703;-55
2021/01/29 04:19:30;;;;;;;26.47;17.43;;;;;;;;;;2096103;28;20276;-58
2021/01/29 04:20:39;;;;;;;26.50;17.87;;;;;;;;;;2096173;28;20220;-59
2021/01/29 04:21:42;;;;;;;25.60;17.67;;;;;;;;;;2097480;28;20202;-58
2021/01/29 04:22:45;;;;;;;25.97;17.83;;;;;;;;;;2081197;28;20456;-58
2021/01/29 04:23:48;;;;;;;32.40;18.30;;;;;;;;;;2089968;28;20656;-58
2021/01/29 04:25:01;;;;;;;23.20;16.77;;;;;;;;;;2088915;28;20537;-58
2021/01/29 04:26:05;;;;;;;29.47;18.37;;;;;;;;;;2096851;28;20183;-57
2021/01/29 04:27:14;;;;;;;23.77;17.20;;;;;;;;;;2096996;28;20845;-63
2021/01/29 04:28:15;;;;;;;24.17;17.73;;;;;;;;;;2090125;28;20183;-59
2021/01/29 04:29:17;;;;;;;24.23;16.03;;;;;;;;;;2096331;28;20221;-60
2021/01/29 04:30:20;;;;;;;27.70;17.23;;;;;;;;;;2095420;28;20225;-58
2021/01/29 04:31:22;;;;;;;25.30;17.43;;;;;;;;;;2094750;28;20171;-57
2021/01/29 04:32:25;;;;;;;28.10;17.53;;;;;;;;;;2092382;28;20208;-59
2021/01/29 04:33:29;;;;;;;27.27;17.00;;;;;;;;;;2089423;28;20740;-59
2021/01/29 04:34:32;;;;;;;26.90;17.50;;;;;;;;;;2086066;28;20180;-57
2021/01/29 04:35:33;;;;;;;23.87;16.60;;;;;;;;;;2095467;28;20658;-57
2021/01/29 04:36:35;;;;;;;30.33;16.87;;;;;;;;;;2097203;28;20167;-59
2021/01/29 04:37:38;;;;;;;29.60;17.70;;;;;;;;;;2091381;28;20179;-58
2021/01/29 04:38:44;;;;;;;25.83;17.93;;;;;;;;;;2090021;28;20558;-55
2021/01/29 04:39:49;;;;;;;22.10;15.73;;;;;;;;;;2081905;28;20177;-59
2021/01/29 04:41:08;;;;;;;24.47;16.83;;;;;;;;;;2097513;28;20169;-57
2021/01/29 04:42:18;;;;;;;21.70;15.60;;;;;;;;;;2088794;28;20191;-57
2021/01/29 04:43:32;;;;;;;21.40;16.17;;;;;;;;;;2094075;28;20203;-57
2021/01/29 04:44:45;;;;;;;25.30;16.43;;;;;;;;;;2090621;28;20171;-57
2021/01/29 04:45:45;;;;;;;31.17;17.67;;;;;;;;;;2088502;28;20191;-59
2021/01/29 04:47:04;;;;;;;24.33;16.33;;;;;;;;;;2097516;28;20174;-63
2021/01/29 04:48:04;;;;;;;25.73;15.70;;;;;;;;;;2085176;28;20171;-63
2021/01/29 04:49:04;;;;;;;23.43;15.70;;;;;;;;;;2088410;28;20176;-60
2021/01/29 04:50:06;;;;;;;28.37;17.30;;;;;;;;;;2089523;28;20183;-62
2021/01/29 04:51:25;;;;;;;26.87;17.43;;;;;;;;;;2088639;28;20183;-62
2021/01/29 04:52:38;;;;;;;23.20;15.53;;;;;;;;;;2095145;28;20402;-61
2021/01/29 04:53:57;;;;;;;22.10;15.03;;;;;;;;;;2088152;28;20513;-60
2021/01/29 04:55:16;;;;;;;21.53;15.87;;;;;;;;;;2090850;28;20236;-61
2021/01/29 04:56:27;;;;;;;22.30;14.70;;;;;;;;;;2099156;28;20197;-61
2021/01/29 04:57:48;;;;;;;21.23;14.50;;;;;;;;;;2096801;28;20415;-62
2021/01/29 04:59:02;;;;;;;23.67;14.97;;;;;;;;;;2090129;28;20248;-63
2021/01/29 05:00:32;;;;;;;19.80;15.20;;;;;;;;;;2093836;28;20187;-61
2021/01/29 05:01:58;;;;;;;20.17;13.90;;;;;;;;;;2062267;28;20190;-60
2021/01/29 05:03:27;;;;;;;23.30;14.43;;;;;;;;;;2093033;28;20210;-62
2021/01/29 05:04:52;;;;;;;20.40;14.33;;;;;;;;;;2089934;28;20183;-63
2021/01/29 05:06:27;;;;;;;19.00;13.47;;;;;;;;;;2099233;28;20428;-61
2021/01/29 05:07:57;;;;;;;21.37;14.10;;;;;;;;;;2083572;28;20168;-62
2021/01/29 05:09:44;;;;;;;18.90;13.07;;;;;;;;;;2074644;28;20677;-63
2021/01/29 05:11:11;;;;;;;20.80;13.50;;;;;;;;;;2089601;28;20651;-62
2021/01/29 05:12:17;;;;;;;20.87;13.53;;;;;;;;;;2091039;28;20408;-63
2021/01/29 05:13:35;;;;;;;19.70;13.73;;;;;;;;;;2087748;28;20198;-61
2021/01/29 05:14:39;;;;;;;21.57;13.77;;;;;;;;;;2089598;28;20278;-62
2021/01/29 05:15:53;;;;;;;20.00;14.27;;;;;;;;;;2098901;28;20677;-62
2021/01/29 05:16:56;;;;;;;20.30;14.13;;;;;;;;;;2086812;28;20194;-61
2021/01/29 05:17:56;;;;;;;21.30;14.10;;;;;;;;;;2099047;28;20228;-63
2021/01/29 05:19:11;;;;;;;21.47;13.93;;;;;;;;;;2089289;28;20176;-62
2021/01/29 05:20:36;;;;;;;22.20;14.60;;;;;;;;;;2096373;28;20162;-62
2021/01/29 05:21:55;;;;;;;23.00;13.90;;;;;;;;;;2092730;28;20191;-63
2021/01/29 05:23:01;;;;;;;22.87;14.63;;;;;;;;;;2085829;28;20188;-62
2021/01/29 05:24:26;;;;;;;20.67;14.67;;;;;;;;;;2091444;28;20268;-62
2021/01/29 05:25:37;;;;;;;25.17;14.40;;;;;;;;;;2095356;28;20163;-63
2021/01/29 05:26:56;;;;;;;19.27;12.47;;;;;;;;;;2092657;28;20904;-61
2021/01/29 05:27:57;;;;;;;15.43;12.23;;;;;;;;;;2085537;28;20401;-62
2021/01/29 05:29:22;;;;;;;17.87;12.60;;;;;;;;;;2092937;28;20541;-62
2021/01/29 05:30:41;;;;;;;19.87;13.63;;;;;;;;;;2094095;28;20199;-62
2021/01/29 05:31:50;;;;;;;24.70;14.20;;;;;;;;;;2082280;28;20172;-62
2021/01/29 05:33:09;;;;;;;20.63;13.77;;;;;;;;;;2084058;28;20168;-63
2021/01/29 05:34:18;;;;;;;20.23;13.87;;;;;;;;;;2082900;28;20275;-61
2021/01/29 05:35:18;;;;;;;18.53;14.10;;;;;;;;;;2094181;28;20158;-61
2021/01/29 05:36:32;;;;;;;22.90;14.40;;;;;;;;;;2090719;28;20534;-61
2021/01/29 05:37:47;;;;;;;22.27;14.43;;;;;;;;;;2097747;28;20304;-59
2021/01/29 05:38:59;;;;;;;19.63;13.43;;;;;;;;;;2099388;28;20252;-61
2021/01/29 05:40:02;;;;;;;17.43;13.23;;;;;;;;;;2095998;28;20191;-62
2021/01/29 05:41:05;;;;;;;18.23;13.93;;;;;;;;;;2093944;28;20155;-62
2021/01/29 05:42:10;;;;;;;17.90;12.07;;;;;;;;;;2092558;28;20426;-63
2021/01/29 05:43:29;;;;;;;18.80;14.10;;;;;;;;;;2099113;28;20618;-62
2021/01/29 05:44:47;;;;;;;19.73;13.17;;;;;;;;;;2092533;28;20210;-63
2021/01/29 05:45:56;;;;;;;16.57;12.33;;;;;;;;;;2084700;28;20175;-63
2021/01/29 05:46:57;;;;;;;18.10;13.07;;;;;;;;;;2098724;28;20893;-63
2021/01/29 05:48:16;;;;;;;19.83;14.30;;;;;;;;;;2094526;28;20177;-62
2021/01/29 05:49:21;;;;;;;17.77;12.87;;;;;;;;;;2095737;28;20183;-61
2021/01/29 05:50:21;;;;;;;21.33;13.83;;;;;;;;;;2090535;28;20411;-64
2021/01/29 05:51:27;;;;;;;18.43;14.60;;;;;;;;;;2092633;28;20426;-62
2021/01/29 05:52:43;;;;;;;21.43;14.30;;;;;;;;;;2096326;28;20224;-64
2021/01/29 05:54:02;;;;;;;16.20;12.70;;;;;;;;;;2089852;28;20249;-64
2021/01/29 05:55:20;;;;;;;16.87;13.07;;;;;;;;;;2093589;28;20250;-64
2021/01/29 05:56:33;;;;;;;19.83;14.50;;;;;;;;;;2093094;28;20170;-63
2021/01/29 05:57:54;;;;;;;17.40;13.03;;;;;;;;;;2092134;28;20166;-61
2021/01/29 05:59:09;;;;;;;19.33;13.37;;;;;;;;;;2085315;28;20164;-63
2021/01/29 06:00:22;;;;;;;19.53;13.47;;;;;;;;;;2090403;28;20193;-62
2021/01/29 06:01:31;;;;;;;19.50;13.73;;;;;;;;;;2092065;28;20804;-61
2021/01/29 06:02:50;;;;;;;17.80;13.43;;;;;;;;;;2096803;28;20201;-63
2021/01/29 06:04:09;;;;;;;19.70;12.63;;;;;;;;;;2090473;28;20199;-61
2021/01/29 06:05:22;;;;;;;19.50;13.50;;;;;;;;;;2087892;28;20203;-63
2021/01/29 06:06:22;;;;;;;24.33;14.37;;;;;;;;;;2089252;28;20218;-61
2021/01/29 06:07:43;;;;;;;18.70;13.83;;;;;;;;;;2087321;28;20213;-61
2021/01/29 06:09:07;;;;;;;20.77;14.27;;;;;;;;;;2086485;28;20258;-61
2021/01/29 06:10:19;;;;;;;19.77;14.00;;;;;;;;;;2093132;28;20421;-62
2021/01/29 06:11:29;;;;;;;19.97;13.37;;;;;;;;;;2093392;28;20168;-62
2021/01/29 06:12:48;;;;;;;19.77;14.20;;;;;;;;;;2099324;28;20195;-56
2021/01/29 06:13:51;;;;;;;23.47;14.33;;;;;;;;;;2088323;28;20191;-59
2021/01/29 06:15:10;;;;;;;19.80;14.53;;;;;;;;;;2095869;28;20170;-63
2021/01/29 06:16:29;;;;;;;17.20;13.47;;;;;;;;;;2091388;28;20263;-62
2021/01/29 06:17:44;;;;;;;21.40;13.30;;;;;;;;;;2091490;28;20207;-60
2021/01/29 06:18:47;;;;;;;20.83;15.07;;;;;;;;;;2082993;28;20193;-64
2021/01/29 06:20:06;;;;;;;21.13;13.83;;;;;;;;;;2098992;28;20632;-62
2021/01/29 06:21:12;;;;;;;19.43;13.87;;;;;;;;;;2097392;28;20248;-60
2021/01/29 06:22:35;;;;;;;21.47;14.03;;;;;;;;;;2101789;28;20169;-56
2021/01/29 06:23:44;;;;;;;18.87;13.73;;;;;;;;;;2069958;28;20220;-60
2021/01/29 06:25:03;;;;;;;20.83;14.47;;;;;;;;;;2088062;28;20636;-58
2021/01/29 06:26:09;;;;;;;21.67;15.43;;;;;;;;;;2091872;28;20424;-61
2021/01/29 06:27:12;;;;;;;19.83;14.73;;;;;;;;;;2088605;28;20524;-62
2021/01/29 06:28:22;;;;;;;23.87;14.57;;;;;;;;;;2091383;28;20765;-61
2021/01/29 06:29:37;;;;;;;16.93;12.97;;;;;;;;;;2090876;28;20423;-61
2021/01/29 06:30:49;;;;;;;17.90;13.13;;;;;;;;;;2091658;28;20477;-60
2021/01/29 06:32:08;;;;;;;19.50;12.80;;;;;;;;;;2088417;28;20198;-61
2021/01/29 06:33:27;;;;;;;18.67;13.80;;;;;;;;;;2091658;28;20420;-61
2021/01/29 06:34:46;;;;;;;18.70;13.03;;;;;;;;;;2091177;28;20428;-56
2021/01/29 06:35:46;;;;;;;17.27;12.63;;;;;;;;;;2091767;28;20490;-53
2021/01/29 06:36:46;;;;;;;18.70;13.43;;;;;;;;;;2090381;28;20688;-57
2021/01/29 06:37:47;;;;;;;15.70;13.20;;;;;;;;;;2087476;28;20312;-58
2021/01/29 06:39:06;;;;;;;17.30;13.53;;;;;;;;;;2090630;28;20554;-57
2021/01/29 06:40:12;;;;;;;19.40;13.63;;;;;;;;;;2090955;28;20186;-61
2021/01/29 06:41:37;;;;;;;16.97;13.67;;;;;;;;;;2091440;28;20155;-60
2021/01/29 06:42:41;;;;;;;18.07;12.80;;;;;;;;;;2091538;28;20706;-62
2021/01/29 06:43:52;;;;;;;16.83;12.00;;;;;;;;;;2087302;28;20653;-60
2021/01/29 06:44:55;;;;;;;18.43;12.53;;;;;;;;;;2093720;28;20269;-58
2021/01/29 06:45:58;;;;;;;16.50;13.47;;;;;;;;;;2092690;28;20276;-64
2021/01/29 06:46:58;;;;;;;15.27;12.33;;;;;;;;;;2082605;28;20188;-63
2021/01/29 06:48:01;;;;;;;14.40;12.47;;;;;;;;;;2089177;28;20175;-53
2021/01/29 06:49:02;;;;;;;14.73;11.83;;;;;;;;;;2090735;28;20172;-55
2021/01/29 06:50:17;;;;;;;15.70;12.70;;;;;;;;;;2089474;28;20604;-61
2021/01/29 06:51:20;;;;;;;15.33;11.57;;;;;;;;;;2089537;28;20183;-61
2021/01/29 06:52:29;;;;;;;15.73;12.23;;;;;;;;;;2090579;28;21456;-62
2021/01/29 06:53:44;;;;;;;15.70;12.10;;;;;;;;;;2088148;28;20207;-59
2021/01/29 06:54:51;;;;;;;16.00;12.03;;;;;;;;;;2088166;28;20183;-63
2021/01/29 06:56:06;;;;;;;15.00;11.80;;;;;;;;;;2088311;28;20715;-60
2021/01/29 06:57:10;;;;;;;13.27;11.60;;;;;;;;;;2082337;28;20184;-62
2021/01/29 06:58:24;;;;;;;14.93;11.30;;;;;;;;;;2072461;28;20231;-60
2021/01/29 06:59:30;;;;;;;14.47;12.17;;;;;;;;;;2089604;28;20249;-60
2021/01/29 07:00:49;;;;;;;13.77;12.00;;;;;;;;;;2090162;28;20214;-64
2021/01/29 07:02:08;;;;;;;14.83;11.30;;;;;;;;;;2083578;28;20188;-63
2021/01/29 07:03:26;;;;;;;13.57;10.60;;;;;;;;;;2088192;28;20278;-64
2021/01/29 07:04:41;;;;;;;12.77;10.90;;;;;;;;;;2082283;28;20688;-63
2021/01/29 07:05:49;;;;;;;12.80;10.80;;;;;;;;;;2088974;28;20186;-64
2021/01/29 07:06:51;;;;;;;12.13;10.80;;;;;;;;;;2094331;28;20206;-63